Terminal Aerodrome Forecast
Issued by NWS

Home | Current Version | Previous Version | Text Only | Print | Product List | Glossary On
Versions: 1 2 3 4 5 6 7 8 9 10 11 12 13 14 15 16 17 18 19 20 21 22
026
FTUS41 KCAR 121739
TAFPQI
TAF
KPQI 121739Z 1218/1318 05010KT 3/4SM -SN BR OVC010
     FM122000 09010KT 3/4SM -SN BR OVC006
     FM130600 09010G18KT 3/4SM -FZRASNPL BR OVC006
     FM130900 09010G18KT 1SM -RA BR OVC004
     FM131500 17010KT 1SM -RASN BR OVC004=

USA.gov is the U.S. government's official web portal to all federal, state and local government web resources and services.